METAR AND TAF INFORMATION
METAR FOR EGNT
ADDS - METARS form results

(2112 UTC 03 August 2021)
Data provider http://aviationweather.gov/metar/data/
 
METAR text: EGNT 032050Z 28005KT 9999 FEW040 13/10 Q1013
Conditions at: EGNT (NEWCASTLE , GB) observed 2050 UTC 03 August 2021
Temperature: 13.0°C (55°F)
Dewpoint: 10.0°C (50°F) [RH = 82%]
Pressure (altimeter): 29.91 inches Hg (1013.0 mb)
Winds: from the W (280 degrees) at 6 MPH (5 knots; 2.6 m/s)
Visibility: 6 or more miles (10+ km)
Ceiling: at least 12,000 feet AGL
Clouds: few clouds at 4000 feet AGL
Weather: no significant weather observed at this time

METAR text: EGNT 032020Z 29007KT 9999 FEW040 16/11 Q1012
Conditions at: EGNT (NEWCASTLE , GB) observed 2020 UTC 03 August 2021
Temperature: 16.0°C (61°F)
Dewpoint: 11.0°C (52°F) [RH = 72%]
Pressure (altimeter): 29.88 inches Hg (1012.0 mb)
Winds: from the WNW (290 degrees) at 8 MPH (7 knots; 3.6 m/s)
Visibility: 6 or more miles (10+ km)
Ceiling: at least 12,000 feet AGL
Clouds: few clouds at 4000 feet AGL
Weather: no significant weather observed at this time

Forecast for: EGNT (NEWCASTLE , GB)
Text: TAF EGNT 031659Z 0318/0418 26003KT CAVOK
Forecast period: 1800 UTC 03 August 2021 to 1100 UTC 04 August 2021
Forecast type: FROM: standard forecast or significant change
Winds: from the W (260 degrees) at 3 MPH (3 knots; 1.5 m/s)
Visibility: 6 or more miles (10+ km)
Ceiling: unknown
Clouds: missing
Weather: NSW  (no significant weather)
Text: TEMPO 0410/0418 6000 SHRA
Forecast period: 1000 to 1800 UTC 04 August 2021
Forecast type: TEMPORARY: The following changes expected for less than half the time period
Visibility: 4 miles (6 km)
Ceiling: unknown
Clouds: missing
Weather: SHRA  (rain showers)
Text: PROB30
Forecast period: 1000 to 1800 UTC 04 August 2021
Forecast type: TEMPORARY: The following changes expected for less than half the time period
Visibility: 2.49 miles (4.01 km)
Ceiling: unknown
Clouds: missing
Weather: +SHRA  (heavy rain showers)
Text: TEMPO 0410/0418 4000 +SHRA
Forecast period: 1100 to 1800 UTC 04 August 2021
Forecast type: BECOMING: Conditions expected to become as follows by 1400 UTC 04 August 2021
Winds: from the S (180 degrees) at 12 MPH (10 knots; 5.1 m/s)
Visibility: 6 or more miles (10+ km)
Ceiling: unknown
Clouds: missing
Weather: NSW  (no significant weather)

 AIRPORT MAP

 RUNWAY INFORMATION
Runway 07 Runway length 7642 ft Runway width 151 ft
Runway elevation 263 ft Runway displaced threshold 394 ft Runway heading 65
Runway 25 Runway length 7642 ft Runway width 151 ft
Runway elevation 239 ft Runway displaced threshold 446 ft Runway heading 245

 AIRPORT FREQUENCIES
Type APP Name APP Frequency 124.375 MHZ
Type ATIS Name ATIS Frequency 118.375 MHZ
Type GND Name GND Frequency 121.725 MHZ
Type TWR Name TWR Frequency 119.7 MHZ
Type ILS Name Runway 07/ Frequency 111.5 MHZ

 AIRPORT NEAR NAVIGATION AIDS
Type VOR-DME Name Newcastle Frequency 114250 KHZ





Powered by Virtual Airlines Manager

Maps by Rafael Santos